createdAt,value
2022-11-30T00:01:08.746Z,101150.03
2022-11-30T00:03:35.418Z,101149.56
2022-11-30T00:06:13.850Z,101155.13
2022-11-30T00:08:40.466Z,101153.00
2022-11-30T00:11:15.354Z,101150.53
2022-11-30T00:13:42.193Z,101154.63
2022-11-30T00:16:09.119Z,101151.59
2022-11-30T00:18:36.375Z,101148.84
2022-11-30T00:21:06.257Z,101155.75
2022-11-30T00:23:34.630Z,101156.03
2022-11-30T00:26:05.554Z,101155.81
2022-11-30T00:28:33.703Z,101155.00
2022-11-30T00:31:02.692Z,101152.28
2022-11-30T00:33:29.704Z,101155.00
2022-11-30T00:36:00.509Z,101154.19
2022-11-30T00:38:27.619Z,101153.38
2022-11-30T00:40:54.618Z,101149.59
2022-11-30T00:43:21.381Z,101151.00
2022-11-30T00:45:48.158Z,101146.41
2022-11-30T00:48:15.928Z,101148.41
2022-11-30T00:50:42.721Z,101146.56
2022-11-30T00:53:09.430Z,101154.78
2022-11-30T00:55:36.020Z,101140.25
2022-11-30T00:58:02.668Z,101149.28
2022-11-30T01:00:29.367Z,101151.53
2022-11-30T01:02:56.967Z,101155.09
2022-11-30T01:05:23.612Z,101152.34
2022-11-30T01:07:50.390Z,101155.88
2022-11-30T01:10:17.662Z,101164.94
2022-11-30T01:12:44.352Z,101164.72
2022-11-30T01:15:11.346Z,101166.19
2022-11-30T01:17:38.188Z,101164.91
2022-11-30T01:20:08.191Z,101168.84
2022-11-30T01:22:35.937Z,101174.34
2022-11-30T01:25:03.221Z,101178.19
2022-11-30T01:27:29.878Z,101172.38
2022-11-30T01:29:56.820Z,101170.28
2022-11-30T01:32:23.525Z,101164.38
2022-11-30T01:34:50.126Z,101169.03
2022-11-30T01:37:16.769Z,101159.72
2022-11-30T01:39:43.399Z,101162.72
2022-11-30T01:42:18.928Z,101156.97
2022-11-30T01:44:55.010Z,101161.94
2022-11-30T01:47:30.618Z,101162.00
2022-11-30T01:50:10.468Z,101161.44
2022-11-30T01:52:40.219Z,101158.19
2022-11-30T01:55:27.150Z,101165.31
2022-11-30T01:58:01.924Z,101169.16
2022-11-30T02:00:28.867Z,101166.94
2022-11-30T02:03:11.370Z,101161.25
2022-11-30T02:05:41.517Z,101165.59
2022-11-30T02:08:10.995Z,101173.81
2022-11-30T02:10:52.721Z,101175.72
2022-11-30T02:13:34.718Z,101180.63
2022-11-30T02:16:39.477Z,101184.19
2022-11-30T02:19:25.751Z,101176.28
2022-11-30T02:21:57.995Z,101178.19
2022-11-30T02:24:55.392Z,101174.41
2022-11-30T02:27:30.186Z,101170.31
2022-11-30T02:30:05.605Z,101185.34
2022-11-30T02:32:39.104Z,101190.03
2022-11-30T02:35:08.885Z,101184.59
2022-11-30T02:37:37.718Z,101197.25
2022-11-30T02:40:14.530Z,101203.03
2022-11-30T02:42:41.260Z,101207.44
2022-11-30T02:45:09.754Z,101207.75
2022-11-30T02:47:48.311Z,101204.97
2022-11-30T02:50:21.133Z,101208.47
2022-11-30T02:52:48.590Z,101213.56
2022-11-30T02:55:17.890Z,101204.72
2022-11-30T02:57:44.629Z,101208.22
2022-11-30T03:00:13.150Z,101211.97
2022-11-30T03:02:40.890Z,101209.38
2022-11-30T03:05:09.167Z,101210.66
2022-11-30T03:07:35.890Z,101211.69
2022-11-30T03:10:03.014Z,101210.28
2022-11-30T03:12:29.801Z,101203.41
2022-11-30T03:14:56.394Z,101198.16
2022-11-30T03:17:23.256Z,101213.19
2022-11-30T03:19:49.886Z,101215.63
2022-11-30T03:22:16.589Z,101203.56
2022-11-30T03:24:43.189Z,101196.94
2022-11-30T03:27:09.911Z,101210.66
2022-11-30T03:29:36.752Z,101210.16
2022-11-30T03:32:03.660Z,101219.50
2022-11-30T03:34:30.270Z,101209.31
2022-11-30T03:36:57.350Z,101207.41
2022-11-30T03:39:24.371Z,101207.91
2022-11-30T03:41:51.781Z,101213.63
2022-11-30T03:44:18.609Z,101216.63
2022-11-30T03:46:45.388Z,101220.97
2022-11-30T03:49:12.070Z,101229.16
2022-11-30T03:51:38.745Z,101221.44
2022-11-30T03:54:05.499Z,101227.44
2022-11-30T03:56:32.303Z,101234.84
2022-11-30T03:58:58.996Z,101241.75
2022-11-30T04:01:26.772Z,101234.56
2022-11-30T04:03:54.341Z,101238.94
2022-11-30T04:06:21.849Z,101235.09
2022-11-30T04:08:48.908Z,101239.53
2022-11-30T04:11:17.197Z,101247.22
2022-11-30T04:13:44.957Z,101232.50
2022-11-30T04:16:11.783Z,101233.59
2022-11-30T04:18:39.169Z,101228.69
2022-11-30T04:21:07.305Z,101229.28
2022-11-30T04:23:36.840Z,101228.25
2022-11-30T04:26:08.229Z,101233.72
2022-11-30T04:28:35.390Z,101226.59
2022-11-30T04:31:03.091Z,101241.31
2022-11-30T04:33:30.042Z,101239.66
2022-11-30T04:35:59.661Z,101234.75
2022-11-30T04:38:26.697Z,101245.53
2022-11-30T04:40:53.902Z,101241.44
2022-11-30T04:43:21.868Z,101248.84
2022-11-30T04:45:48.605Z,101238.91
2022-11-30T04:48:16.017Z,101253.38
2022-11-30T04:50:42.615Z,101241.81
2022-11-30T04:53:09.886Z,101250.56
2022-11-30T04:55:38.043Z,101253.03
2022-11-30T04:58:05.486Z,101253.25
2022-11-30T05:00:33.031Z,101252.88
2022-11-30T05:02:59.679Z,101254.22
2022-11-30T05:05:26.315Z,101250.59
2022-11-30T05:07:58.115Z,101247.41
2022-11-30T05:10:25.929Z,101248.66
2022-11-30T05:12:53.381Z,101257.31
2022-11-30T05:15:20.476Z,101246.00
2022-11-30T05:17:47.195Z,101250.81
2022-11-30T05:20:14.174Z,101235.81
2022-11-30T05:22:40.883Z,101240.91
2022-11-30T05:25:08.611Z,101238.28
2022-11-30T05:27:35.958Z,101251.34
2022-11-30T05:30:03.310Z,101231.50
2022-11-30T05:32:29.948Z,101235.88
2022-11-30T05:34:56.790Z,101240.78
2022-11-30T05:37:23.772Z,101239.91
2022-11-30T05:39:50.463Z,101243.88
2022-11-30T05:42:17.120Z,101242.47
2022-11-30T05:44:43.785Z,101250.81
2022-11-30T05:47:10.683Z,101247.47
2022-11-30T05:49:37.409Z,101248.50
2022-11-30T05:52:04.119Z,101245.16
2022-11-30T05:54:30.788Z,101244.81
2022-11-30T05:56:57.374Z,101248.63
2022-11-30T05:59:24.067Z,101240.88
2022-11-30T06:01:54.208Z,101244.25
2022-11-30T06:04:21.772Z,101244.97
2022-11-30T06:06:49.611Z,101238.03
2022-11-30T06:09:16.656Z,101252.50
2022-11-30T06:11:43.352Z,101244.75
2022-11-30T06:14:09.960Z,101242.50
2022-11-30T06:16:39.374Z,101240.47
2022-11-30T06:19:06.339Z,101237.38
2022-11-30T06:21:33.020Z,101236.59
2022-11-30T06:23:59.731Z,101245.34
2022-11-30T06:26:26.497Z,101248.94
2022-11-30T06:28:53.244Z,101249.09
2022-11-30T06:31:19.970Z,101256.75
2022-11-30T06:33:46.873Z,101250.03
2022-11-30T06:36:13.490Z,101249.09
2022-11-30T06:38:40.105Z,101253.50
2022-11-30T06:41:08.801Z,101254.59
2022-11-30T06:43:39.793Z,101248.81
2022-11-30T06:46:07.648Z,101262.03
2022-11-30T06:48:35.047Z,101257.97
2022-11-30T06:51:04.935Z,101263.28
2022-11-30T06:53:31.532Z,101263.28
2022-11-30T06:55:58.288Z,101262.69
2022-11-30T06:58:24.944Z,101261.03
2022-11-30T07:00:51.627Z,101267.84
2022-11-30T07:03:18.259Z,101271.44
2022-11-30T07:05:46.608Z,101266.75
2022-11-30T07:08:17.663Z,101269.78
2022-11-30T07:10:46.151Z,101275.28
2022-11-30T07:13:14.808Z,101274.19
2022-11-30T07:15:42.556Z,101283.56
2022-11-30T07:18:09.658Z,101285.69
2022-11-30T07:20:36.954Z,101286.50
2022-11-30T07:23:23.132Z,101284.06
2022-11-30T07:26:06.631Z,101290.97
2022-11-30T07:28:42.125Z,101292.41
2022-11-30T07:31:27.255Z,101299.06
2022-11-30T07:33:55.035Z,101301.00
2022-11-30T07:36:23.165Z,101302.31
2022-11-30T07:38:50.073Z,101308.31
2022-11-30T07:41:16.707Z,101306.72
2022-11-30T07:43:43.535Z,101303.94
2022-11-30T07:46:13.100Z,101313.00
2022-11-30T07:48:40.221Z,101312.72
2022-11-30T07:51:12.170Z,101321.78
2022-11-30T07:53:38.915Z,101330.34
2022-11-30T07:56:07.499Z,101334.72
2022-11-30T07:58:34.627Z,101337.47
2022-11-30T08:01:07.529Z,101343.28
2022-11-30T08:03:37.044Z,101342.47
2022-11-30T08:06:09.893Z,101349.09
2022-11-30T08:08:38.959Z,101347.44
2022-11-30T08:11:07.443Z,101350.53
2022-11-30T08:13:34.567Z,101366.22
2022-11-30T08:16:07.597Z,101350.03
2022-11-30T08:18:34.678Z,101359.69
2022-11-30T08:21:03.827Z,101372.13
2022-11-30T08:23:37.267Z,101371.31
2022-11-30T08:26:06.835Z,101394.13
2022-11-30T08:28:37.573Z,101382.31
2022-11-30T08:31:07.968Z,101391.69
2022-11-30T08:33:35.523Z,101403.50
2022-11-30T08:36:09.369Z,101398.81
2022-11-30T08:38:36.264Z,101401.56
2022-11-30T08:41:03.630Z,101410.84
2022-11-30T08:43:30.349Z,101408.00
2022-11-30T08:45:57.626Z,101410.66
2022-11-30T08:48:24.794Z,101418.00
2022-11-30T08:50:51.441Z,101420.06
2022-11-30T08:53:18.106Z,101427.09
2022-11-30T08:55:54.593Z,101430.56
2022-11-30T08:58:21.186Z,101428.53
2022-11-30T09:00:47.877Z,101430.34
2022-11-30T09:03:14.534Z,101431.38
2022-11-30T09:05:41.207Z,101431.50
2022-11-30T09:08:07.875Z,101443.50
2022-11-30T09:10:34.772Z,101442.91
2022-11-30T09:13:01.406Z,101448.03
2022-11-30T09:15:28.059Z,101448.19
2022-11-30T09:17:54.729Z,101458.81
2022-11-30T09:20:21.469Z,101452.69
2022-11-30T09:22:49.134Z,101460.03
2022-11-30T09:25:15.842Z,101461.84
2022-11-30T09:27:43.548Z,101452.66
2022-11-30T09:30:10.666Z,101455.94
2022-11-30T09:32:37.273Z,101455.50
2022-11-30T09:35:05.836Z,101452.13
2022-11-30T09:37:35.250Z,101468.88
2022-11-30T09:40:02.065Z,101460.78
2022-11-30T09:42:49.006Z,101472.03
2022-11-30T09:45:30.647Z,101480.50
2022-11-30T09:48:28.063Z,101479.06
2022-11-30T09:50:55.166Z,101477.94
2022-11-30T09:53:40.227Z,101480.38
2022-11-30T09:56:18.917Z,101496.00
2022-11-30T09:58:51.209Z,101498.97
2022-11-30T10:01:19.305Z,101491.19
2022-11-30T10:03:46.910Z,101503.84
2022-11-30T10:06:26.352Z,101511.00
2022-11-30T10:09:03.289Z,101515.06
2022-11-30T10:11:42.484Z,101509.25
2022-11-30T10:14:37.326Z,101519.69
2022-11-30T10:17:22.336Z,101513.84
2022-11-30T10:19:54.614Z,101516.28
2022-11-30T10:22:46.592Z,101525.56
2022-11-30T10:25:37.652Z,101513.41
2022-11-30T10:28:46.447Z,101520.59
2022-11-30T10:31:13.880Z,101519.97
2022-11-30T10:33:55.169Z,101523.22
2022-11-30T10:36:33.294Z,101526.50
2022-11-30T10:39:03.924Z,101525.06
2022-11-30T10:41:47.089Z,101525.25
2022-11-30T10:44:40.700Z,101522.19
2022-11-30T10:47:24.430Z,101525.44
2022-11-30T10:49:52.777Z,101531.47
2022-11-30T10:52:26.647Z,101534.72
2022-11-30T10:55:02.284Z,101525.00
2022-11-30T10:57:32.516Z,101527.13
2022-11-30T11:00:02.501Z,101525.69
2022-11-30T11:02:43.214Z,101521.50
2022-11-30T11:05:30.936Z,101531.09
2022-11-30T11:08:06.967Z,101528.84
2022-11-30T11:10:45.152Z,101526.25
2022-11-30T11:13:39.223Z,101521.75
2022-11-30T11:16:08.907Z,101525.50
2022-11-30T11:18:37.530Z,101527.16
2022-11-30T11:21:09.955Z,101534.81
2022-11-30T11:23:39.362Z,101522.63
2022-11-30T11:26:08.640Z,101520.69
2022-11-30T11:28:37.296Z,101529.78
2022-11-30T11:31:19.034Z,101536.28
2022-11-30T11:33:54.735Z,101539.88
2022-11-30T11:36:32.056Z,101540.41
2022-11-30T11:39:00.607Z,101539.25
2022-11-30T11:41:34.032Z,101548.03
2022-11-30T11:44:06.475Z,101548.84
2022-11-30T11:46:38.065Z,101551.31
2022-11-30T11:49:22.488Z,101537.19
2022-11-30T11:52:03.197Z,101543.53
2022-11-30T11:54:55.844Z,101548.22
2022-11-30T11:57:33.674Z,101542.72
2022-11-30T12:00:16.485Z,101540.78
2022-11-30T12:03:02.441Z,101536.06
2022-11-30T12:05:42.952Z,101527.78
2022-11-30T12:08:24.843Z,101542.09
2022-11-30T12:11:02.921Z,101545.66
2022-11-30T12:13:37.246Z,101537.06
2022-11-30T12:16:15.794Z,101533.16
2022-11-30T12:19:15.495Z,101536.91
2022-11-30T12:21:57.746Z,101534.66
2022-11-30T12:24:55.316Z,101541.53
2022-11-30T12:27:30.800Z,101527.38
2022-11-30T12:30:03.183Z,101526.75
2022-11-30T12:32:58.936Z,101531.94
2022-11-30T12:35:44.919Z,101534.41
2022-11-30T12:38:26.168Z,101533.44
2022-11-30T12:41:20.513Z,101525.03
2022-11-30T12:44:11.961Z,101521.63
2022-11-30T12:46:56.989Z,101532.34
2022-11-30T12:49:56.955Z,101530.13
2022-11-30T12:52:46.009Z,101533.38
2022-11-30T12:55:28.383Z,101529.78
2022-11-30T12:58:00.899Z,101525.91
2022-11-30T13:00:39.892Z,101521.16
2022-11-30T13:03:19.291Z,101521.69
2022-11-30T13:05:53.129Z,101510.63
2022-11-30T13:08:42.860Z,101509.19
2022-11-30T13:11:20.437Z,101511.59
2022-11-30T13:13:54.218Z,101509.34
2022-11-30T13:16:24.812Z,101500.72
2022-11-30T13:18:55.291Z,101510.34
2022-11-30T13:21:30.390Z,101515.53
2022-11-30T13:23:56.986Z,101511.16
2022-11-30T13:26:29.538Z,101508.88
2022-11-30T13:29:20.646Z,101518.00
2022-11-30T13:32:14.018Z,101514.59
2022-11-30T13:34:49.345Z,101508.75
2022-11-30T13:37:27.191Z,101521.09
2022-11-30T13:39:57.785Z,101524.34
2022-11-30T13:42:27.024Z,101526.81
2022-11-30T13:44:54.498Z,101531.19
2022-11-30T13:47:36.456Z,101529.25
2022-11-30T13:50:25.045Z,101516.59
2022-11-30T13:53:00.688Z,101529.59
2022-11-30T13:55:56.406Z,101533.16
2022-11-30T13:58:23.786Z,101531.53
2022-11-30T14:01:32.297Z,101529.59
2022-11-30T17:36:18.799Z,101707.44
2022-11-30T17:38:45.807Z,101701.91
2022-11-30T17:41:18.863Z,101717.03
2022-11-30T17:43:46.966Z,101716.22
2022-11-30T17:46:16.839Z,101715.91
2022-11-30T17:48:44.094Z,101707.63
2022-11-30T17:51:11.113Z,101710.41
2022-11-30T17:53:39.264Z,101702.94
2022-11-30T17:56:11.254Z,101703.72
2022-11-30T17:58:43.297Z,101703.72
2022-11-30T18:01:25.615Z,101706.50
2022-11-30T18:03:53.389Z,101708.47
2022-11-30T18:06:20.377Z,101711.22
2022-11-30T18:08:47.014Z,101708.47
2022-11-30T18:11:25.210Z,101702.94
2022-11-30T18:13:55.072Z,101710.06
2022-11-30T18:16:30.550Z,101709.25
2022-11-30T18:18:59.501Z,101712.00
2022-11-30T18:21:29.732Z,101707.00
2022-11-30T18:23:59.028Z,101713.97
2022-11-30T18:26:26.877Z,101711.22
2022-11-30T18:28:59.028Z,101714.78
2022-11-30T18:31:30.067Z,101712.84
2022-11-30T18:34:02.391Z,101714.78
2022-11-30T18:36:30.907Z,101711.72
2022-11-30T18:38:58.009Z,101711.72
2022-11-30T18:41:26.428Z,101707.84
2022-11-30T18:43:53.690Z,101714.16
2022-11-30T18:46:20.909Z,101711.38
2022-11-30T18:48:51.829Z,101709.44
2022-11-30T18:51:21.203Z,101709.94
2022-11-30T18:53:48.046Z,101709.16
2022-11-30T18:56:19.807Z,101707.19
2022-11-30T18:58:47.575Z,101717.44
2022-11-30T19:01:19.414Z,101719.06
2022-11-30T19:03:52.831Z,101712.72
2022-11-30T19:06:19.926Z,101709.94
2022-11-30T19:08:47.805Z,101708.00
2022-11-30T19:11:16.278Z,101718.25
2022-11-30T19:13:43.417Z,101712.72
2022-11-30T19:16:13.023Z,101712.72
2022-11-30T19:18:40.107Z,101701.66
2022-11-30T19:21:08.803Z,101714.34
2022-11-30T19:23:36.849Z,101717.44
2022-11-30T19:26:04.917Z,101714.16
2022-11-30T19:28:33.036Z,101710.59
2022-11-30T19:31:00.276Z,101712.53
2022-11-30T19:33:27.912Z,101707.84
2022-11-30T19:36:00.655Z,101725.22
2022-11-30T19:38:27.252Z,101739.03
2022-11-30T19:40:53.915Z,101743.44
2022-11-30T19:43:20.612Z,101744.25
2022-11-30T19:45:47.280Z,101747.00
2022-11-30T19:48:14.003Z,101757.75
2022-11-30T19:50:40.626Z,101755.81
2022-11-30T19:53:07.270Z,101775.16
2022-11-30T19:55:33.868Z,101775.66
2022-11-30T19:58:00.593Z,101776.47
2022-11-30T20:00:28.249Z,101780.88
2022-11-30T20:02:55.099Z,101796.63
2022-11-30T20:05:24.190Z,101793.88
2022-11-30T20:07:51.151Z,101799.06
2022-11-30T20:10:17.919Z,101810.13
2022-11-30T20:12:44.567Z,101815.66
2022-11-30T20:15:11.517Z,101813.72
2022-11-30T20:17:38.413Z,101803.78
2022-11-30T20:20:05.750Z,101799.91
2022-11-30T20:22:33.642Z,101788.34
2022-11-30T20:25:00.358Z,101788.34
2022-11-30T20:27:27.046Z,101789.97
2022-11-30T20:29:53.996Z,101791.09
2022-11-30T20:32:20.714Z,101800.22
2022-11-30T20:34:48.345Z,101798.25
2022-11-30T20:37:16.921Z,101797.13
2022-11-30T20:39:46.055Z,101802.97
2022-11-30T20:42:13.315Z,101807.69
2022-11-30T20:44:39.951Z,101813.22
2022-11-30T20:47:06.667Z,101813.22
2022-11-30T20:49:33.405Z,101824.25
2022-11-30T20:52:00.048Z,101827.03
2022-11-30T20:54:29.402Z,101824.25
2022-11-30T20:56:57.541Z,101825.38
2022-11-30T20:59:26.624Z,101825.09
2022-11-30T21:01:56.794Z,101832.56
2022-11-30T21:04:25.774Z,101836.94
2022-11-30T21:06:53.434Z,101836.94
2022-11-30T21:09:20.803Z,101838.91
2022-11-30T21:11:48.455Z,101835.31
2022-11-30T21:14:15.652Z,101836.94
2022-11-30T21:16:42.346Z,101835.31
2022-11-30T21:19:11.888Z,101844.44
2022-11-30T21:21:38.698Z,101845.22
2022-11-30T21:24:08.053Z,101849.13
2022-11-30T21:26:40.369Z,101845.22
2022-11-30T21:29:11.683Z,101846.38
2022-11-30T21:31:38.571Z,101837.56
2022-11-30T21:34:05.407Z,101836.75
2022-11-30T21:36:32.543Z,101833.66
2022-11-30T21:39:05.655Z,101838.38
2022-11-30T21:41:33.709Z,101843.09
2022-11-30T21:44:00.384Z,101839.69
2022-11-30T21:46:27.202Z,101844.72
2022-11-30T21:48:54.062Z,101845.53
2022-11-30T21:51:25.984Z,101847.97
2022-11-30T21:53:55.638Z,101853.50
2022-11-30T21:56:25.109Z,101844.44
2022-11-30T21:58:52.467Z,101849.13
2022-11-30T22:01:23.470Z,101846.66
2022-11-30T22:03:50.350Z,101845.53
2022-11-30T22:06:19.090Z,101839.19
2022-11-30T22:08:46.692Z,101840.03
2022-11-30T22:11:16.615Z,101842.28
2022-11-30T22:13:44.213Z,101847.81
2022-11-30T22:16:13.646Z,101847.81
2022-11-30T22:18:42.027Z,101840.34
2022-11-30T22:21:14.139Z,101834.00
2022-11-30T22:23:44.425Z,101837.03
2022-11-30T22:26:13.922Z,101839.81
2022-11-30T22:28:43.743Z,101842.56
2022-11-30T22:31:11.990Z,101836.25
2022-11-30T22:33:40.651Z,101849.25
2022-11-30T22:36:08.735Z,101850.06
2022-11-30T22:38:35.501Z,101851.50
2022-11-30T22:41:10.576Z,101848.75
2022-11-30T22:43:37.355Z,101855.38
2022-11-30T22:46:06.782Z,101849.34
2022-11-30T22:48:34.230Z,101846.06
2022-11-30T22:51:08.170Z,101842.78
2022-11-30T22:53:36.193Z,101848.94
2022-11-30T22:56:08.797Z,101847.59
2022-11-30T22:58:35.758Z,101849.03
2022-11-30T23:01:13.195Z,101855.19
2022-11-30T23:03:43.025Z,101856.63
2022-11-30T23:06:12.363Z,101858.88
2022-11-30T23:08:39.125Z,101864.19
2022-11-30T23:11:12.463Z,101857.34
2022-11-30T23:13:41.175Z,101861.84
2022-11-30T23:16:09.228Z,101866.13
2022-11-30T23:18:48.548Z,101853.44
2022-11-30T23:21:16.678Z,101861.50
2022-11-30T23:23:44.080Z,101859.06
2022-11-30T23:26:19.902Z,101857.41
2022-11-30T23:28:48.963Z,101862.53
2022-11-30T23:31:33.853Z,101852.94
2022-11-30T23:34:04.747Z,101844.53
2022-11-30T23:36:32.317Z,101850.66
2022-11-30T23:39:02.050Z,101847.81
2022-11-30T23:41:29.088Z,101847.34
2022-11-30T23:43:56.491Z,101839.50
2022-11-30T23:46:23.866Z,101830.69
2022-11-30T23:48:50.867Z,101829.13
2022-11-30T23:51:17.601Z,101826.44
2022-11-30T23:53:44.476Z,101827.06
2022-11-30T23:56:13.752Z,101821.91
2022-11-30T23:58:40.408Z,101824.16
